Time,TemperatureF,DewpointF,PressureIn,WindDirection,WindDirectionDegrees,WindSpeedMPH,WindSpeedGustMPH,Humidity,HourlyPrecipIn,Conditions,Clouds,dailyrainin,SoftwareType,DateUTC
2013-03-21 00:00:00,42.0,22.0,29.80,West,268,4.0,13.0,46,-99.99,,,-99.99,,2013-03-21 04:00:00,
2013-03-21 00:23:00,42.0,22.0,29.80,West,268,4.0,13.0,46,-99.99,,,-99.99,,2013-03-21 04:23:00,
2013-03-21 00:33:00,42.0,22.0,29.80,West,268,4.0,13.0,46,-99.99,,,-99.99,,2013-03-21 04:33:00,
2013-03-21 00:43:00,42.0,22.0,29.80,West,268,4.0,13.0,46,-99.99,,,-99.99,,2013-03-21 04:43:00,
2013-03-21 00:53:00,42.0,22.0,29.80,West,268,4.0,13.0,46,-99.99,,,-99.99,,2013-03-21 04:53:00,
2013-03-21 01:00:00,40.0,20.0,29.80,North,353,4.0,8.0,43,-99.99,,,-99.99,,2013-03-21 05:00:00,
2013-03-21 01:33:00,40.0,20.0,29.80,North,353,4.0,8.0,43,-99.99,,,-99.99,,2013-03-21 05:33:00,
2013-03-21 01:44:00,40.0,20.0,29.80,North,353,4.0,8.0,43,-99.99,,,-99.99,,2013-03-21 05:44:00,
2013-03-21 01:52:00,40.0,20.0,29.80,North,353,4.0,8.0,43,-99.99,,,-99.99,,2013-03-21 05:52:00,
2013-03-21 02:00:00,37.0,24.0,29.77,NNW,338,11.0,17.0,58,-99.99,,,-99.99,,2013-03-21 06:00:00,
2013-03-21 02:23:00,37.0,24.0,29.77,NNW,338,11.0,17.0,58,-99.99,,,-99.99,,2013-03-21 06:23:00,
2013-03-21 02:32:00,37.0,24.0,29.77,NNW,338,11.0,17.0,58,-99.99,,,-99.99,,2013-03-21 06:32:00,
2013-03-21 02:42:00,37.0,24.0,29.77,NNW,338,11.0,17.0,58,-99.99,,,-99.99,,2013-03-21 06:42:00,
2013-03-21 02:52:00,37.0,24.0,29.77,NNW,338,11.0,17.0,58,-99.99,,,-99.99,,2013-03-21 06:52:00,
2013-03-21 03:00:00,35.0,26.0,29.77,NNW,348,5.0,17.0,67,-99.99,,,-99.99,,2013-03-21 07:00:00,
2013-03-21 03:22:00,35.0,26.0,29.77,NNW,348,5.0,17.0,67,-99.99,,,-99.99,,2013-03-21 07:22:00,
2013-03-21 03:32:00,35.0,26.0,29.77,NNW,348,5.0,17.0,67,-99.99,,,-99.99,,2013-03-21 07:32:00,
2013-03-21 03:43:00,35.0,26.0,29.77,NNW,348,5.0,17.0,67,-99.99,,,-99.99,,2013-03-21 07:43:00,
2013-03-21 03:53:00,35.0,26.0,29.77,NNW,348,5.0,17.0,67,-99.99,,,-99.99,,2013-03-21 07:53:00,
2013-03-21 04:00:00,34.0,26.0,29.74,North,349,6.0,14.0,71,-99.99,,,-99.99,,2013-03-21 08:00:00,
2013-03-21 04:23:00,34.0,26.0,29.74,North,349,6.0,14.0,71,-99.99,,,-99.99,,2013-03-21 08:23:00,
2013-03-21 04:33:00,34.0,26.0,29.74,North,349,6.0,14.0,71,-99.99,,,-99.99,,2013-03-21 08:33:00,
2013-03-21 04:43:00,34.0,26.0,29.74,North,349,6.0,14.0,71,-99.99,,,-99.99,,2013-03-21 08:43:00,
2013-03-21 04:52:00,34.0,26.0,29.74,North,349,6.0,14.0,71,-99.99,,,-99.99,,2013-03-21 08:52:00,
2013-03-21 05:00:00,33.0,26.0,29.74,NNW,347,6.0,16.0,74,-99.99,,,-99.99,,2013-03-21 09:00:00,
2013-03-21 05:22:00,33.0,26.0,29.74,NNW,347,6.0,16.0,74,-99.99,,,-99.99,,2013-03-21 09:22:00,
2013-03-21 05:33:00,33.0,26.0,29.74,NNW,347,6.0,16.0,74,-99.99,,,-99.99,,2013-03-21 09:33:00,
2013-03-21 05:43:00,33.0,26.0,29.74,NNW,347,6.0,16.0,74,-99.99,,,-99.99,,2013-03-21 09:43:00,
2013-03-21 05:53:00,33.0,26.0,29.74,NNW,347,6.0,16.0,74,-99.99,,,-99.99,,2013-03-21 09:53:00,
2013-03-21 06:00:00,34.0,26.0,29.74,NNW,347,9.0,14.0,75,-99.99,,,-99.99,,2013-03-21 10:00:00,
2013-03-21 06:23:00,34.0,26.0,29.74,NNW,347,9.0,14.0,75,-99.99,,,-99.99,,2013-03-21 10:23:00,
2013-03-21 06:34:00,34.0,26.0,29.74,NNW,347,9.0,14.0,75,-99.99,,,-99.99,,2013-03-21 10:34:00,
2013-03-21 06:43:00,34.0,26.0,29.74,NNW,347,9.0,14.0,75,-99.99,,,-99.99,,2013-03-21 10:43:00,
2013-03-21 06:53:00,34.0,26.0,29.74,NNW,347,9.0,14.0,75,-99.99,,,-99.99,,2013-03-21 10:53:00,
2013-03-21 07:00:00,33.0,25.0,29.74,North,0,7.0,17.0,71,-99.99,,,-99.99,,2013-03-21 11:00:00,
2013-03-21 07:23:00,33.0,25.0,29.74,North,0,7.0,17.0,71,-99.99,,,-99.99,,2013-03-21 11:23:00,
2013-03-21 07:33:00,33.0,25.0,29.74,North,0,7.0,17.0,71,-99.99,,,-99.99,,2013-03-21 11:33:00,
2013-03-21 07:43:00,33.0,25.0,29.74,North,0,7.0,17.0,71,-99.99,,,-99.99,,2013-03-21 11:43:00,
2013-03-21 07:53:00,33.0,25.0,29.74,North,0,7.0,17.0,71,-99.99,,,-99.99,,2013-03-21 11:53:00,
2013-03-21 08:00:00,34.0,23.0,29.77,NNW,341,10.0,15.0,65,-99.99,,,-99.99,,2013-03-21 12:00:00,
2013-03-21 08:33:00,34.0,23.0,29.77,NNW,341,10.0,15.0,65,-99.99,,,-99.99,,2013-03-21 12:33:00,
2013-03-21 08:43:00,34.0,23.0,29.77,NNW,341,10.0,15.0,65,-99.99,,,-99.99,,2013-03-21 12:43:00,
2013-03-21 08:53:00,34.0,23.0,29.77,NNW,341,10.0,15.0,65,-99.99,,,-99.99,,2013-03-21 12:53:00,
2013-03-21 09:00:00,34.0,20.0,29.74,NNW,346,9.0,18.0,58,-99.99,,,-99.99,,2013-03-21 13:00:00,
2013-03-21 09:22:00,34.0,20.0,29.74,NNW,346,9.0,18.0,58,-99.99,,,-99.99,,2013-03-21 13:22:00,
2013-03-21 09:33:00,34.0,20.0,29.74,NNW,346,9.0,18.0,58,-99.99,,,-99.99,,2013-03-21 13:33:00,
2013-03-21 09:43:00,34.0,20.0,29.74,NNW,346,9.0,18.0,58,-99.99,,,-99.99,,2013-03-21 13:43:00,
2013-03-21 09:53:00,34.0,20.0,29.74,NNW,346,9.0,18.0,58,-99.99,,,-99.99,,2013-03-21 13:53:00,
2013-03-21 10:00:00,34.0,22.0,29.74,NNW,340,13.0,19.0,62,-99.99,,,-99.99,,2013-03-21 14:00:00,
2013-03-21 10:32:00,34.0,22.0,29.74,NNW,340,13.0,19.0,62,-99.99,,,-99.99,,2013-03-21 14:32:00,
2013-03-21 10:43:00,34.0,22.0,29.74,NNW,340,13.0,19.0,62,-99.99,,,-99.99,,2013-03-21 14:43:00,
2013-03-21 10:52:00,34.0,22.0,29.74,NNW,340,13.0,19.0,62,-99.99,,,-99.99,,2013-03-21 14:52:00,
2013-03-21 11:00:00,32.0,23.0,29.74,NNW,328,16.0,18.0,69,-99.99,,,-99.99,,2013-03-21 15:00:00,
2013-03-21 11:33:00,32.0,23.0,29.74,NNW,328,16.0,18.0,69,-99.99,,,-99.99,,2013-03-21 15:33:00,
2013-03-21 11:43:00,32.0,23.0,29.74,NNW,328,16.0,18.0,69,-99.99,,,-99.99,,2013-03-21 15:43:00,
2013-03-21 11:53:00,32.0,23.0,29.74,NNW,328,16.0,18.0,69,-99.99,,,-99.99,,2013-03-21 15:53:00,
2013-03-21 12:00:00,32.0,24.0,29.71,NNE,15,8.0,16.0,73,-99.99,,,-99.99,,2013-03-21 16:00:00,
2013-03-21 12:33:00,32.0,24.0,29.71,NNE,15,8.0,16.0,73,-99.99,,,-99.99,,2013-03-21 16:33:00,
2013-03-21 12:42:00,32.0,24.0,29.71,NNE,15,8.0,16.0,73,-99.99,,,-99.99,,2013-03-21 16:42:00,
2013-03-21 12:53:00,32.0,24.0,29.71,NNE,15,8.0,16.0,73,-99.99,,,-99.99,,2013-03-21 16:53:00,
2013-03-21 13:00:00,34.0,18.0,29.68,North,9,6.0,16.0,50,-99.99,,,-99.99,,2013-03-21 17:00:00,
2013-03-21 13:23:00,34.0,18.0,29.68,North,9,6.0,16.0,50,-99.99,,,-99.99,,2013-03-21 17:23:00,
2013-03-21 13:33:00,34.0,18.0,29.68,North,9,6.0,16.0,50,-99.99,,,-99.99,,2013-03-21 17:33:00,
2013-03-21 13:43:00,34.0,18.0,29.68,North,9,6.0,16.0,50,-99.99,,,-99.99,,2013-03-21 17:43:00,
2013-03-21 13:53:00,34.0,18.0,29.68,North,9,6.0,16.0,50,-99.99,,,-99.99,,2013-03-21 17:53:00,
2013-03-21 14:00:00,32.0,26.0,29.68,NW,316,13.0,21.0,81,-99.99,,,-99.99,,2013-03-21 18:00:00,
2013-03-21 14:23:00,32.0,26.0,29.68,NW,316,13.0,21.0,81,-99.99,,,-99.99,,2013-03-21 18:23:00,
2013-03-21 14:32:00,32.0,26.0,29.68,NW,316,13.0,21.0,81,-99.99,,,-99.99,,2013-03-21 18:32:00,
2013-03-21 14:43:00,32.0,26.0,29.68,NW,316,13.0,21.0,81,-99.99,,,-99.99,,2013-03-21 18:43:00,
2013-03-21 14:52:00,32.0,26.0,29.68,NW,316,13.0,21.0,81,-99.99,,,-99.99,,2013-03-21 18:52:00,
2013-03-21 15:00:00,29.0,27.0,29.68,North,351,5.0,17.0,94,-99.99,,,-99.99,,2013-03-21 19:00:00,
2013-03-21 15:23:00,29.0,27.0,29.68,North,351,5.0,17.0,94,-99.99,,,-99.99,,2013-03-21 19:23:00,
2013-03-21 15:32:00,29.0,27.0,29.68,North,351,5.0,17.0,94,-99.99,,,-99.99,,2013-03-21 19:32:00,
2013-03-21 15:43:00,29.0,27.0,29.68,North,351,5.0,17.0,94,-99.99,,,-99.99,,2013-03-21 19:43:00,
2013-03-21 15:53:00,29.0,27.0,29.68,North,351,5.0,17.0,94,-99.99,,,-99.99,,2013-03-21 19:53:00,
2013-03-21 16:00:00,30.0,28.0,29.65,ENE,63,4.0,9.0,94,-99.99,,,-99.99,,2013-03-21 20:00:00,
2013-03-21 16:23:00,30.0,28.0,29.65,ENE,63,4.0,9.0,94,-99.99,,,-99.99,,2013-03-21 20:23:00,
2013-03-21 16:33:00,30.0,28.0,29.65,ENE,63,4.0,9.0,94,-99.99,,,-99.99,,2013-03-21 20:33:00,
2013-03-21 16:43:00,30.0,28.0,29.65,ENE,63,4.0,9.0,94,-99.99,,,-99.99,,2013-03-21 20:43:00,
2013-03-21 16:53:00,30.0,28.0,29.65,ENE,63,4.0,9.0,94,-99.99,,,-99.99,,2013-03-21 20:53:00,
2013-03-21 17:00:00,32.0,29.0,29.65,East,80,3.0,7.0,90,-99.99,,,-99.99,,2013-03-21 21:00:00,
2013-03-21 17:23:00,32.0,29.0,29.65,East,80,3.0,7.0,90,-99.99,,,-99.99,,2013-03-21 21:23:00,
2013-03-21 17:33:00,32.0,29.0,29.65,East,80,3.0,7.0,90,-99.99,,,-99.99,,2013-03-21 21:33:00,
2013-03-21 17:43:00,32.0,29.0,29.65,East,80,3.0,7.0,90,-99.99,,,-99.99,,2013-03-21 21:43:00,
2013-03-21 17:53:00,32.0,29.0,29.65,East,80,3.0,7.0,90,-99.99,,,-99.99,,2013-03-21 21:53:00,
2013-03-21 18:00:00,32.0,28.0,29.65,ESE,117,3.0,6.0,85,-99.99,,,-99.99,,2013-03-21 22:00:00,
2013-03-21 18:23:00,32.0,28.0,29.65,ESE,117,3.0,6.0,85,-99.99,,,-99.99,,2013-03-21 22:23:00,
2013-03-21 18:34:00,32.0,28.0,29.65,ESE,117,3.0,6.0,85,-99.99,,,-99.99,,2013-03-21 22:34:00,
2013-03-21 18:43:00,32.0,28.0,29.65,ESE,117,3.0,6.0,85,-99.99,,,-99.99,,2013-03-21 22:43:00,
2013-03-21 18:53:00,32.0,28.0,29.65,ESE,117,3.0,6.0,85,-99.99,,,-99.99,,2013-03-21 22:53:00,
2013-03-21 19:00:00,32.0,28.0,29.65,South,174,3.0,7.0,84,-99.99,,,-99.99,,2013-03-21 23:00:00,
2013-03-21 19:33:00,32.0,28.0,29.65,South,174,3.0,7.0,84,-99.99,,,-99.99,,2013-03-21 23:33:00,
2013-03-21 19:43:00,32.0,28.0,29.65,South,174,3.0,7.0,84,-99.99,,,-99.99,,2013-03-21 23:43:00,
2013-03-21 19:53:00,32.0,28.0,29.65,South,174,3.0,7.0,84,-99.99,,,-99.99,,2013-03-21 23:53:00,
2013-03-21 20:00:00,34.0,21.0,29.68,WSW,254,7.0,8.0,59,-99.99,,,-99.99,,2013-03-22 00:00:00,
2013-03-21 20:32:00,34.0,21.0,29.68,WSW,254,7.0,8.0,59,-99.99,,,-99.99,,2013-03-22 00:32:00,
2013-03-21 20:42:00,34.0,21.0,29.68,WSW,254,7.0,8.0,59,-99.99,,,-99.99,,2013-03-22 00:42:00,
2013-03-21 20:52:00,34.0,21.0,29.68,WSW,254,7.0,8.0,59,-99.99,,,-99.99,,2013-03-22 00:52:00,
2013-03-21 21:00:00,34.0,15.0,29.68,WNW,283,12.0,19.0,45,-99.99,,,-99.99,,2013-03-22 01:00:00,
2013-03-21 21:33:00,34.0,15.0,29.68,WNW,283,12.0,19.0,45,-99.99,,,-99.99,,2013-03-22 01:33:00,
2013-03-21 21:43:00,34.0,15.0,29.68,WNW,283,12.0,19.0,45,-99.99,,,-99.99,,2013-03-22 01:43:00,
2013-03-21 21:53:00,34.0,15.0,29.68,WNW,283,12.0,19.0,45,-99.99,,,-99.99,,2013-03-22 01:53:00,
2013-03-21 22:00:00,32.0,17.0,29.71,WNW,300,13.0,25.0,53,-99.99,,,-99.99,,2013-03-22 02:00:00,
2013-03-21 22:22:00,32.0,17.0,29.71,WNW,300,13.0,25.0,53,-99.99,,,-99.99,,2013-03-22 02:22:00,
2013-03-21 22:32:00,32.0,17.0,29.71,WNW,300,13.0,25.0,53,-99.99,,,-99.99,,2013-03-22 02:32:00,
2013-03-21 22:43:00,32.0,17.0,29.71,WNW,300,13.0,25.0,53,-99.99,,,-99.99,,2013-03-22 02:43:00,
2013-03-21 22:53:00,32.0,17.0,29.71,WNW,300,13.0,25.0,53,-99.99,,,-99.99,,2013-03-22 02:53:00,
2013-03-21 23:00:00,31.0,16.0,29.71,West,270,12.0,22.0,52,-99.99,,,-99.99,,2013-03-22 03:00:00,
2013-03-21 23:22:00,31.0,16.0,29.71,West,270,12.0,22.0,52,-99.99,,,-99.99,,2013-03-22 03:22:00,
2013-03-21 23:33:00,31.0,16.0,29.71,West,270,12.0,22.0,52,-99.99,,,-99.99,,2013-03-22 03:33:00,
2013-03-21 23:43:00,31.0,16.0,29.71,West,270,12.0,22.0,52,-99.99,,,-99.99,,2013-03-22 03:43:00,
2013-03-21 23:53:00,31.0,16.0,29.71,West,270,12.0,22.0,52,-99.99,,,-99.99,,2013-03-22 03:53:00,